createdAt,value
2022-08-28T00:01:19.563Z,100570.92
2022-08-28T00:03:48.217Z,100573.27
2022-08-28T00:06:16.952Z,100573.62
2022-08-28T00:08:46.886Z,100570.52
2022-08-28T00:11:15.778Z,100566.33
2022-08-28T00:13:44.441Z,100565.14
2022-08-28T00:16:15.721Z,100566.30
2022-08-28T00:18:45.308Z,100568.86
2022-08-28T00:21:16.030Z,100573.76
2022-08-28T00:23:44.844Z,100577.09
2022-08-28T00:26:33.557Z,100578.27
2022-08-28T00:29:06.401Z,100583.54
2022-08-28T00:31:38.997Z,100578.80
2022-08-28T00:34:09.604Z,100581.40
2022-08-28T00:36:39.227Z,100579.29
2022-08-28T00:39:09.961Z,100579.94
2022-08-28T00:41:41.300Z,100579.14
2022-08-28T00:44:19.171Z,100580.65
2022-08-28T00:46:51.396Z,100579.23
2022-08-28T00:49:26.714Z,100585.29
2022-08-28T00:52:11.826Z,100582.58
2022-08-28T00:55:00.654Z,100582.28
2022-08-28T00:57:35.888Z,100580.30
2022-08-28T01:00:12.258Z,100581.77
2022-08-28T01:02:42.484Z,100585.38
2022-08-28T01:05:11.582Z,100587.12
2022-08-28T01:07:40.404Z,100587.94
2022-08-28T01:10:12.960Z,100590.14
2022-08-28T01:12:42.444Z,100589.60
2022-08-28T01:15:16.865Z,100585.57
2022-08-28T01:17:52.385Z,100588.86
2022-08-28T01:20:27.965Z,100588.77
2022-08-28T01:23:15.773Z,100590.89
2022-08-28T01:25:44.503Z,100584.52
2022-08-28T01:28:14.836Z,100581.78
2022-08-28T01:30:47.650Z,100580.39
2022-08-28T01:33:17.014Z,100580.33
2022-08-28T01:35:48.433Z,100580.39
2022-08-28T01:38:20.173Z,100576.96
2022-08-28T01:40:53.933Z,100571.56
2022-08-28T01:43:26.565Z,100566.06
2022-08-28T01:46:02.513Z,100572.41
2022-08-28T01:48:36.268Z,100573.52
2022-08-28T01:51:06.291Z,100572.71
2022-08-28T01:53:35.674Z,100574.96
2022-08-28T01:56:12.719Z,100576.21
2022-08-28T01:58:42.241Z,100579.98
2022-08-28T02:01:20.649Z,100583.48
2022-08-28T02:03:53.237Z,100582.83
2022-08-28T02:06:22.610Z,100579.23
2022-08-28T02:08:55.572Z,100582.04
2022-08-28T02:11:25.658Z,100581.27
2022-08-28T02:13:56.252Z,100579.86
2022-08-28T02:16:25.218Z,100582.45
2022-08-28T02:18:54.045Z,100579.20
2022-08-28T02:21:22.761Z,100578.16
2022-08-28T02:23:52.235Z,100576.78
2022-08-28T02:26:22.106Z,100575.55
2022-08-28T02:28:50.952Z,100573.94
2022-08-28T02:31:20.379Z,100576.80
2022-08-28T02:33:49.215Z,100576.35
2022-08-28T02:36:18.643Z,100578.10
2022-08-28T02:38:47.882Z,100575.31
2022-08-28T02:41:16.967Z,100579.20
2022-08-28T02:43:45.705Z,100580.29
2022-08-28T02:46:14.423Z,100578.38
2022-08-28T02:48:43.414Z,100579.81
2022-08-28T02:51:14.890Z,100583.15
2022-08-28T02:53:43.944Z,100585.30
2022-08-28T02:56:12.685Z,100580.92
2022-08-28T02:58:41.384Z,100580.74
2022-08-28T03:01:13.635Z,100583.10
2022-08-28T03:03:43.300Z,100583.73
2022-08-28T03:06:13.747Z,100587.85
2022-08-28T03:08:43.886Z,100592.61
2022-08-28T03:11:13.074Z,100592.42
2022-08-28T03:13:42.690Z,100597.77
2022-08-28T03:16:11.844Z,100600.48
2022-08-28T03:18:40.647Z,100604.73
2022-08-28T03:21:10.874Z,100603.81
2022-08-28T03:23:40.259Z,100602.45
2022-08-28T03:26:13.780Z,100605.38
2022-08-28T03:28:47.546Z,100602.09
2022-08-28T03:31:23.236Z,100604.34
2022-08-28T03:33:53.525Z,100603.91
2022-08-28T03:36:26.866Z,100606.55
2022-08-28T03:39:01.737Z,100607.80
2022-08-28T03:41:34.338Z,100611.46
2022-08-28T03:44:04.865Z,100611.30
2022-08-28T03:46:34.280Z,100608.75
2022-08-28T03:49:04.999Z,100606.98
2022-08-28T03:51:34.956Z,100611.01
2022-08-28T03:54:04.903Z,100612.82
2022-08-28T03:56:33.773Z,100617.80
2022-08-28T03:59:05.533Z,100622.64
2022-08-28T04:01:34.568Z,100622.94
2022-08-28T04:04:04.018Z,100623.74
2022-08-28T04:06:32.753Z,100627.97
2022-08-28T04:09:02.512Z,100628.01
2022-08-28T04:11:31.383Z,100629.36
2022-08-28T04:14:00.074Z,100627.91
2022-08-28T04:16:28.854Z,100627.05
2022-08-28T04:18:58.526Z,100624.90
2022-08-28T04:21:28.340Z,100626.77
2022-08-28T04:23:56.988Z,100628.75
2022-08-28T04:26:27.852Z,100633.13
2022-08-28T04:28:56.684Z,100634.54
2022-08-28T04:31:32.091Z,100637.10
2022-08-28T04:34:03.322Z,100642.50
2022-08-28T04:36:33.948Z,100646.48
2022-08-28T04:39:06.184Z,100642.67
2022-08-28T04:41:37.163Z,100635.36
2022-08-28T04:44:07.106Z,100635.20
2022-08-28T04:46:36.824Z,100634.80
2022-08-28T04:49:06.121Z,100636.84
2022-08-28T04:51:37.775Z,100637.10
2022-08-28T04:54:11.066Z,100639.45
2022-08-28T04:56:41.689Z,100639.91
2022-08-28T04:59:11.999Z,100640.01
2022-08-28T05:01:42.869Z,100637.26
2022-08-28T05:04:12.877Z,100641.31
2022-08-28T05:06:46.443Z,100643.30
2022-08-28T05:09:18.922Z,100641.39
2022-08-28T05:11:49.559Z,100646.96
2022-08-28T05:14:18.269Z,100642.62
2022-08-28T05:16:53.272Z,100648.46
2022-08-28T05:19:22.095Z,100653.85
2022-08-28T05:21:52.925Z,100655.92
2022-08-28T05:24:22.650Z,100658.79
2022-08-28T05:26:51.460Z,100655.44
2022-08-28T05:29:20.032Z,100655.52
2022-08-28T05:31:49.585Z,100658.17
2022-08-28T05:34:18.243Z,100655.37
2022-08-28T05:36:47.421Z,100658.28
2022-08-28T05:39:17.519Z,100663.33
2022-08-28T05:41:47.275Z,100663.33
2022-08-28T05:44:18.110Z,100662.48
2022-08-28T05:46:48.403Z,100663.61
2022-08-28T05:49:19.808Z,100661.73
2022-08-28T05:51:50.442Z,100664.52
2022-08-28T05:54:19.105Z,100662.29
2022-08-28T05:56:48.733Z,100664.52
2022-08-28T05:59:17.984Z,100659.61
2022-08-28T06:01:49.586Z,100659.81
2022-08-28T06:04:28.018Z,100660.52
2022-08-28T06:06:57.573Z,100663.56
2022-08-28T06:09:30.208Z,100667.36
2022-08-28T06:12:03.099Z,100666.59
2022-08-28T06:14:33.305Z,100668.04
2022-08-28T06:17:04.415Z,100664.90
2022-08-28T06:19:40.586Z,100665.61
2022-08-28T06:22:12.631Z,100667.08
2022-08-28T06:24:42.056Z,100668.21
2022-08-28T06:27:10.625Z,100667.53
2022-08-28T06:29:40.131Z,100668.47
2022-08-28T06:32:09.425Z,100665.09
2022-08-28T06:34:38.357Z,100667.13
2022-08-28T06:37:08.385Z,100671.39
2022-08-28T06:39:37.279Z,100670.73
2022-08-28T06:42:06.550Z,100668.21
2022-08-28T06:44:35.418Z,100664.81
2022-08-28T06:47:04.457Z,100665.96
2022-08-28T06:49:33.757Z,100668.58
2022-08-28T06:52:02.866Z,100668.24
2022-08-28T06:54:31.640Z,100667.09
2022-08-28T06:57:00.441Z,100665.34
2022-08-28T06:59:29.377Z,100666.67
2022-08-28T07:01:58.898Z,100663.81
2022-08-28T07:04:28.078Z,100664.76
2022-08-28T07:06:56.807Z,100661.77
2022-08-28T07:09:25.633Z,100662.98
2022-08-28T07:11:54.503Z,100662.08
2022-08-28T07:14:23.862Z,100661.92
2022-08-28T07:16:55.269Z,100660.01
2022-08-28T07:19:24.007Z,100654.70
2022-08-28T07:21:53.139Z,100649.70
2022-08-28T07:24:21.922Z,100648.63
2022-08-28T07:26:50.758Z,100647.77
2022-08-28T07:29:20.062Z,100649.33
2022-08-28T07:31:53.278Z,100650.34
2022-08-28T07:34:27.103Z,100645.25
2022-08-28T07:36:58.437Z,100646.96
2022-08-28T07:39:27.263Z,100650.80
2022-08-28T07:41:56.056Z,100651.67
2022-08-28T07:44:43.557Z,100652.17
2022-08-28T07:47:12.377Z,100650.77
2022-08-28T07:49:41.985Z,100654.55
2022-08-28T07:52:12.066Z,100660.25
2022-08-28T07:54:40.912Z,100657.71
2022-08-28T07:57:10.692Z,100653.52
2022-08-28T07:59:42.280Z,100653.46
2022-08-28T08:02:11.752Z,100652.50
2022-08-28T08:04:41.064Z,100656.20
2022-08-28T08:07:10.153Z,100653.52
2022-08-28T08:09:44.311Z,100653.77
2022-08-28T08:12:15.050Z,100652.94
2022-08-28T08:14:44.641Z,100649.89
2022-08-28T08:17:13.354Z,100649.20
2022-08-28T08:19:42.349Z,100650.92
2022-08-28T08:22:11.105Z,100654.14
2022-08-28T08:24:39.800Z,100655.65
2022-08-28T08:27:10.786Z,100649.96
2022-08-28T08:29:39.846Z,100647.44
2022-08-28T08:32:11.904Z,100646.64
2022-08-28T08:34:45.986Z,100650.67
2022-08-28T08:37:15.811Z,100649.70
2022-08-28T08:39:44.423Z,100647.66
2022-08-28T08:42:28.169Z,100643.14
2022-08-28T08:45:04.554Z,100642.47
2022-08-28T08:47:49.375Z,100638.77
2022-08-28T08:50:32.447Z,100637.80
2022-08-28T08:53:13.248Z,100638.95
2022-08-28T08:55:54.718Z,100635.44
2022-08-28T08:58:41.399Z,100632.09
2022-08-28T09:01:36.335Z,100635.23
2022-08-28T09:04:29.446Z,100631.19
2022-08-28T09:07:20.140Z,100632.01
2022-08-28T09:09:55.653Z,100630.16
2022-08-28T09:12:28.660Z,100632.27
2022-08-28T09:15:05.778Z,100634.52
2022-08-28T09:17:44.915Z,100636.30
2022-08-28T09:20:20.408Z,100630.71
2022-08-28T09:22:59.027Z,100631.59
2022-08-28T09:25:57.122Z,100631.20
2022-08-28T09:28:28.588Z,100634.00
2022-08-28T09:31:05.697Z,100632.81
2022-08-28T09:33:52.522Z,100629.39
2022-08-28T09:36:44.638Z,100634.40
2022-08-28T09:39:21.210Z,100631.76
2022-08-28T09:42:34.965Z,100630.48
2022-08-28T09:45:21.614Z,100627.06
2022-08-28T09:48:00.974Z,100622.87
2022-08-28T09:50:41.941Z,100624.60
2022-08-28T09:53:10.479Z,100623.31
2022-08-28T09:55:56.407Z,100621.73
2022-08-28T09:58:38.212Z,100620.66
2022-08-28T10:01:38.197Z,100620.36
2022-08-28T10:04:17.122Z,100623.27
2022-08-28T10:07:38.573Z,100621.08
2022-08-28T10:10:20.802Z,100612.89
2022-08-28T10:13:25.335Z,100609.64
2022-08-28T10:15:56.978Z,100610.55
2022-08-28T10:18:39.683Z,100612.23
2022-08-28T10:21:38.160Z,100606.95
2022-08-28T10:24:09.937Z,100604.67
2022-08-28T10:27:07.166Z,100604.77
2022-08-28T10:29:54.320Z,100605.22
2022-08-28T10:32:47.052Z,100597.01
2022-08-28T10:36:01.718Z,100595.61
2022-08-28T10:38:53.114Z,100593.48
2022-08-28T10:41:37.995Z,100592.42
2022-08-28T10:44:09.897Z,100592.96
2022-08-28T10:46:52.606Z,100587.75
2022-08-28T10:49:38.149Z,100593.48
2022-08-28T10:52:23.588Z,100591.21
2022-08-28T10:55:38.045Z,100591.55
2022-08-28T10:58:24.128Z,100584.11
2022-08-28T11:01:07.113Z,100586.33
2022-08-28T11:03:50.323Z,100582.19
2022-08-28T11:06:48.363Z,100580.45
2022-08-28T11:09:41.444Z,100575.27
2022-08-28T11:12:20.160Z,100575.20
2022-08-28T11:14:51.385Z,100578.20
2022-08-28T11:17:23.207Z,100583.79
2022-08-28T11:20:07.676Z,100584.25
2022-08-28T11:22:44.599Z,100577.88
2022-08-28T11:25:34.925Z,100579.50
2022-08-28T11:28:41.106Z,100575.63
2022-08-28T11:31:10.559Z,100569.52
2022-08-28T11:33:53.161Z,100567.70
2022-08-28T11:36:21.998Z,100564.34
2022-08-28T11:38:53.902Z,100564.42
2022-08-28T11:41:33.944Z,100572.69
2022-08-28T11:44:09.395Z,100572.38
2022-08-28T11:46:46.040Z,100573.85
2022-08-28T11:49:26.768Z,100567.95
2022-08-28T11:52:32.257Z,100567.09
2022-08-28T11:55:20.502Z,100563.74
2022-08-28T12:00:51.568Z,100552.89
2022-08-28T12:03:32.331Z,100555.27
2022-08-28T12:06:02.642Z,100556.27
2022-08-28T12:08:49.263Z,100556.32
2022-08-28T12:11:40.279Z,100558.36
2022-08-28T12:14:41.250Z,100560.53
2022-08-28T12:17:27.886Z,100562.15
2022-08-28T12:20:10.580Z,100565.96
2022-08-28T12:22:53.715Z,100560.71
2022-08-28T12:25:44.692Z,100564.00
2022-08-28T12:28:49.686Z,100561.73
2022-08-28T12:31:57.975Z,100560.80
2022-08-28T12:34:46.127Z,100559.23
2022-08-28T12:37:36.804Z,100560.27
2022-08-28T12:40:53.649Z,100555.59
2022-08-28T12:43:43.252Z,100561.14
2022-08-28T12:46:31.433Z,100559.45
2022-08-28T12:49:06.192Z,100551.67
2022-08-28T12:51:38.018Z,100546.10
2022-08-28T12:54:09.079Z,100541.14
2022-08-28T12:56:38.853Z,100539.38
2022-08-28T12:59:27.114Z,100536.96
2022-08-28T13:02:18.795Z,100534.39
2022-08-28T13:04:56.761Z,100537.04
2022-08-28T13:07:46.041Z,100530.59
2022-08-28T13:10:48.334Z,100531.22
2022-08-28T13:13:40.526Z,100530.42
2022-08-28T13:16:33.959Z,100529.67
2022-08-28T13:19:06.989Z,100532.21
2022-08-28T13:22:03.880Z,100529.42
2022-08-28T13:24:35.485Z,100530.92
2022-08-28T13:27:19.465Z,100525.72
2022-08-28T13:30:00.110Z,100523.45
2022-08-28T13:32:34.693Z,100520.11
2022-08-28T13:35:26.252Z,100513.47
2022-08-28T13:38:11.718Z,100528.27
2022-08-28T13:41:00.261Z,100529.24
2022-08-28T13:43:44.302Z,100528.88
2022-08-28T13:46:14.035Z,100524.91
2022-08-28T13:48:42.821Z,100529.19
2022-08-28T13:51:20.877Z,100527.32
2022-08-28T13:53:51.068Z,100528.52
2022-08-28T13:56:21.868Z,100530.70
2022-08-28T13:58:57.554Z,100529.57
2022-08-28T14:01:45.754Z,100526.42
2022-08-28T14:04:14.649Z,100525.35
2022-08-28T14:06:44.612Z,100526.86
2022-08-28T14:09:17.892Z,100526.63
2022-08-28T14:11:48.882Z,100531.03
2022-08-28T14:14:18.542Z,100532.83
2022-08-28T14:16:47.990Z,100531.56
2022-08-28T14:19:17.027Z,100528.27
2022-08-28T14:21:46.463Z,100529.06
2022-08-28T14:24:16.024Z,100531.96
2022-08-28T14:26:46.022Z,100528.23
2022-08-28T14:29:17.957Z,100531.66
2022-08-28T14:31:47.983Z,100531.53
2022-08-28T14:34:22.786Z,100529.84
2022-08-28T14:36:55.456Z,100524.75
2022-08-28T14:39:27.139Z,100524.48
2022-08-28T14:41:55.999Z,100527.27
2022-08-28T14:44:26.373Z,100528.40
2022-08-28T14:46:57.156Z,100524.54
2022-08-28T14:49:28.463Z,100526.84
2022-08-28T14:51:57.923Z,100530.36
2022-08-28T14:54:26.807Z,100532.66
2022-08-28T14:56:55.905Z,100534.73
2022-08-28T14:59:29.202Z,100541.80
2022-08-28T15:02:00.494Z,100537.98
2022-08-28T15:04:34.902Z,100534.08
2022-08-28T15:07:11.071Z,100539.23
2022-08-28T15:09:42.637Z,100543.38
2022-08-28T15:12:11.898Z,100545.48
2022-08-28T15:14:40.772Z,100546.65
2022-08-28T15:17:24.028Z,100545.58
2022-08-28T15:20:05.104Z,100539.90
2022-08-28T15:22:33.981Z,100545.54
2022-08-28T15:25:03.703Z,100541.66
2022-08-28T15:27:33.822Z,100539.77
2022-08-28T15:30:02.856Z,100537.26
2022-08-28T15:32:32.709Z,100540.38
2022-08-28T15:35:01.717Z,100541.00
2022-08-28T15:37:31.537Z,100539.17
2022-08-28T15:40:19.300Z,100541.77
2022-08-28T15:42:48.966Z,100538.77
2022-08-28T15:45:18.380Z,100537.09
2022-08-28T15:47:47.296Z,100536.70
2022-08-28T15:50:17.330Z,100537.55
2022-08-28T15:52:49.044Z,100532.63
2022-08-28T15:55:18.083Z,100532.77
2022-08-28T15:57:46.972Z,100533.72
2022-08-28T16:00:16.812Z,100535.09
2022-08-28T16:02:45.635Z,100535.55
2022-08-28T16:05:14.846Z,100535.10
2022-08-28T16:07:43.866Z,100532.42
2022-08-28T16:10:14.156Z,100535.98
2022-08-28T16:12:43.032Z,100536.70
2022-08-28T16:15:21.075Z,100532.36
2022-08-28T16:17:50.237Z,100532.95
2022-08-28T16:20:19.344Z,100534.08
2022-08-28T16:22:48.022Z,100535.42
2022-08-28T16:25:16.721Z,100540.51
2022-08-28T16:27:45.605Z,100543.27
2022-08-28T16:30:15.765Z,100547.23
2022-08-28T16:32:46.758Z,100545.98
2022-08-28T16:35:17.072Z,100545.58
2022-08-28T16:37:46.199Z,100545.45
2022-08-28T16:40:15.201Z,100545.66
2022-08-28T16:42:51.663Z,100545.07
2022-08-28T16:45:21.835Z,100544.10
2022-08-28T16:47:51.187Z,100547.06
2022-08-28T16:50:20.179Z,100551.06
2022-08-28T16:52:49.066Z,100554.90
2022-08-28T16:55:17.995Z,100555.70
2022-08-28T16:57:47.059Z,100559.30
2022-08-28T17:00:16.481Z,100560.36
2022-08-28T17:02:45.596Z,100563.02
2022-08-28T17:05:17.439Z,100564.70
2022-08-28T17:07:48.410Z,100569.20
2022-08-28T17:10:21.535Z,100581.60
2022-08-28T17:12:50.982Z,100582.85
2022-08-28T17:15:20.573Z,100592.33
2022-08-28T17:17:49.762Z,100593.63
2022-08-28T17:20:38.429Z,100599.38
2022-08-28T17:23:07.637Z,100608.14
2022-08-28T17:25:36.497Z,100613.27
2022-08-28T17:28:05.502Z,100616.92
2022-08-28T17:30:34.686Z,100618.73
2022-08-28T17:33:03.591Z,100621.27
2022-08-28T17:35:32.588Z,100621.89
2022-08-28T17:38:11.068Z,100624.23
2022-08-28T17:40:40.701Z,100631.16
2022-08-28T17:43:10.035Z,100631.42
2022-08-28T17:45:38.904Z,100633.95
2022-08-28T17:48:07.813Z,100642.37
2022-08-28T17:50:36.786Z,100642.33
2022-08-28T17:53:05.772Z,100647.56
2022-08-28T17:55:34.778Z,100649.48
2022-08-28T17:58:03.568Z,100647.05
2022-08-28T18:00:32.354Z,100648.98
2022-08-28T18:03:01.962Z,100651.95
2022-08-28T18:05:30.745Z,100654.90
2022-08-28T18:08:00.161Z,100654.27
2022-08-28T18:10:33.860Z,100655.34
2022-08-28T18:13:05.617Z,100658.20
2022-08-28T18:15:34.705Z,100660.77
2022-08-28T18:18:06.069Z,100665.48
2022-08-28T18:20:34.866Z,100669.11
2022-08-28T18:23:03.936Z,100669.23
2022-08-28T18:25:42.190Z,100667.80
2022-08-28T18:28:22.190Z,100670.09
2022-08-28T18:30:52.612Z,100671.13
2022-08-28T18:33:29.986Z,100670.33
2022-08-28T18:35:59.846Z,100670.11
2022-08-28T18:38:29.066Z,100671.16
2022-08-28T18:40:59.160Z,100672.58
2022-08-28T18:43:28.075Z,100675.73
2022-08-28T18:45:57.040Z,100676.66
2022-08-28T18:48:25.861Z,100680.73
2022-08-28T18:50:55.289Z,100684.83
2022-08-28T18:53:24.849Z,100687.31
2022-08-28T18:55:55.485Z,100694.13
2022-08-28T18:58:27.686Z,100695.13
2022-08-28T19:00:56.854Z,100696.94
2022-08-28T19:03:25.655Z,100701.59
2022-08-28T19:05:56.571Z,100705.06
2022-08-28T19:08:26.330Z,100708.14
2022-08-28T19:10:55.380Z,100705.09
2022-08-28T19:13:24.429Z,100707.48
2022-08-28T19:15:53.733Z,100705.14
2022-08-28T19:18:22.566Z,100708.93
2022-08-28T19:20:52.999Z,100709.67
2022-08-28T19:23:21.796Z,100713.66
2022-08-28T19:25:50.784Z,100717.29
2022-08-28T19:28:19.676Z,100716.76
2022-08-28T19:30:48.523Z,100722.05
2022-08-28T19:33:17.345Z,100721.83
2022-08-28T19:35:46.273Z,100722.41
2022-08-28T19:38:15.279Z,100724.11
2022-08-28T19:40:45.762Z,100728.42
2022-08-28T19:43:16.800Z,100731.65
2022-08-28T19:45:46.851Z,100732.73
2022-08-28T19:48:16.447Z,100736.09
2022-08-28T19:50:45.843Z,100733.74
2022-08-28T19:53:15.694Z,100734.30
2022-08-28T19:55:44.597Z,100740.21
2022-08-28T19:58:13.763Z,100745.61
2022-08-28T20:00:42.856Z,100749.96
2022-08-28T20:03:11.623Z,100751.86
2022-08-28T20:05:41.549Z,100751.48
2022-08-28T20:08:20.210Z,100755.82
2022-08-28T20:10:53.293Z,100755.54
2022-08-28T20:13:22.147Z,100759.82
2022-08-28T20:15:51.626Z,100766.42
2022-08-28T20:18:21.936Z,100768.31
2022-08-28T20:20:51.992Z,100772.38
2022-08-28T20:23:20.983Z,100775.10
2022-08-28T20:25:51.511Z,100776.89
2022-08-28T20:28:20.764Z,100778.74
2022-08-28T20:30:49.898Z,100778.55
2022-08-28T20:33:19.028Z,100779.06
2022-08-28T20:35:47.901Z,100777.97
2022-08-28T20:38:16.712Z,100775.22
2022-08-28T20:40:45.608Z,100772.05
2022-08-28T20:43:14.369Z,100771.55
2022-08-28T20:45:43.071Z,100770.77
2022-08-28T20:48:12.007Z,100770.77
2022-08-28T20:50:40.848Z,100774.79
2022-08-28T20:53:09.780Z,100778.21
2022-08-28T20:55:38.928Z,100780.24
2022-08-28T20:58:07.750Z,100785.19
2022-08-28T21:00:36.742Z,100785.46
2022-08-28T21:03:06.040Z,100783.25
2022-08-28T21:05:35.017Z,100786.48
2022-08-28T21:08:04.320Z,100785.65
2022-08-28T21:10:33.950Z,100784.60
2022-08-28T21:13:04.410Z,100786.91
2022-08-28T21:15:34.466Z,100786.66
2022-08-28T21:18:03.919Z,100787.52
2022-08-28T21:20:32.658Z,100782.67
2022-08-28T21:23:01.477Z,100782.01
2022-08-28T21:25:30.453Z,100782.14
2022-08-28T21:27:59.256Z,100783.70
2022-08-28T21:30:33.441Z,100782.54
2022-08-28T21:33:02.347Z,100787.80
2022-08-28T21:35:32.052Z,100789.23
2022-08-28T21:38:00.838Z,100791.05
2022-08-28T21:40:29.777Z,100793.09
2022-08-28T21:42:59.043Z,100797.00
2022-08-28T21:45:28.557Z,100801.39
2022-08-28T21:47:57.326Z,100801.13
2022-08-28T21:50:29.493Z,100800.30
2022-08-28T21:52:58.347Z,100799.96
2022-08-28T21:55:27.080Z,100798.38
2022-08-28T21:57:55.786Z,100796.83
2022-08-28T22:00:24.653Z,100798.81
2022-08-28T22:02:53.527Z,100800.14
2022-08-28T22:05:22.841Z,100796.27
2022-08-28T22:07:51.767Z,100797.48
2022-08-28T22:10:20.639Z,100801.56
2022-08-28T22:12:49.530Z,100802.29
2022-08-28T22:15:18.307Z,100805.06
2022-08-28T22:17:47.218Z,100806.47
2022-08-28T22:20:16.514Z,100808.40
2022-08-28T22:23:04.032Z,100807.03
2022-08-28T22:25:32.957Z,100807.83
2022-08-28T22:28:10.871Z,100807.07
2022-08-28T22:30:40.436Z,100803.48
2022-08-28T22:33:11.178Z,100803.46
2022-08-28T22:35:40.410Z,100808.02
2022-08-28T22:38:09.475Z,100814.09
2022-08-28T22:40:38.431Z,100816.05
2022-08-28T22:43:07.468Z,100816.80
2022-08-28T22:45:36.394Z,100815.95
2022-08-28T22:48:06.628Z,100811.27
2022-08-28T22:50:35.457Z,100810.51
2022-08-28T22:53:04.793Z,100810.73
2022-08-28T22:55:33.549Z,100812.48
2022-08-28T22:58:03.708Z,100814.21
2022-08-28T23:00:33.568Z,100811.23
2022-08-28T23:03:02.414Z,100808.20
2022-08-28T23:05:31.671Z,100805.81
2022-08-28T23:08:00.476Z,100807.70
2022-08-28T23:23:05.940Z,100812.37
2022-08-28T23:25:35.519Z,100814.45
2022-08-28T23:28:06.579Z,100815.99
2022-08-28T23:30:35.528Z,100821.54
2022-08-28T23:33:08.308Z,100823.36
2022-08-28T23:35:37.726Z,100824.83
2022-08-28T23:38:06.559Z,100824.25
2022-08-28T23:40:37.715Z,100824.31
2022-08-28T23:43:06.544Z,100824.19
2022-08-28T23:45:38.974Z,100824.24
2022-08-28T23:48:08.725Z,100825.91
2022-08-28T23:50:39.978Z,100828.76
2022-08-28T23:53:11.424Z,100825.92
2022-08-28T23:55:40.226Z,100828.37
2022-08-28T23:58:10.396Z,100826.14
